ULAAULMM

Guest
Details From ULAA - Talagi
To ULMM - Murmansk
Flight Number -
Tags Real
Created
Modified
Stats Distance 288 nm / 533 km
Max Altitude 0 ft / 0 m
Waypoints 3
Social Downloads 11
Likes 0
Share VATSIM

Download

Looking for another format? Having issues loading an existing format? Contact us
Advertisement - Login to hide

Notes

None

Route

RILDA PILAN PELOR

ID Type Via Altitude Latitude Longitude Leg Dist Tot Dist Heading (true) Name
O RILDA FIX - 0 ft / 0 m 65.47500˚ 40.25167˚ - 0 nm - -
PILAN FIX - 0 ft / 0 m 67.45500˚ 32.78667˚ 214 nm 214 nm 307° / 300° -
O PELOR FIX - 0 ft / 0 m 68.61667˚ 31.78333˚ 73 nm 288 nm 343° / 342° -

Altitude Profile

Advertisement - Login to hide

Weather


0- 5 10 15 20 25 30 35+ Temperature / ° C

Clouds and Precipitation
Forecast for 2017-12-15 12:00 UTC. Updated an hour ago

Ground ~20,000 ft ~40,000 ft Winds

ULAA

Details ICAO ULAA (ARH)
Name TALAGI
Region Russia
Timezone Europe/Moscow (UTC+3.0)
Stats Elevation 62 ft / 19 m (AMSL)
Location 64.600275° 40.716665°
Runways 1
Magnetic Variation 16.926° E

METAR

ULAA 151230Z 11004MPS 080V150 9999 OVC006 M05/M05 Q1007 R08/950542 TEMPO 1000 BR BKN003 RMK QBB180 QFE754/1006

Decode

TAF

TAF TAF ULAA 151057Z 1512/1612 15006MPS 6000 BKN005 BKN011 TEMPO 1512/1516 12006MPS 1000 SN BR BKN003 TEMPO 1516/1612 16003G08MPS 3100 -SN BKN004

Decode

Departure Runways

ID Width Length Bearing (true) Bearing (mag) Surface Threshold Offset Overrun Length
08 144 ft / 44 m 8,173 ft / 2,491 m 96.59° 79.66° Concrete 0 ft / 0 m 164 ft / 50 m
26 144 ft / 44 m 8,173 ft / 2,491 m 276.63° 259.70° Concrete 0 ft / 0 m 164 ft / 50 m

ULMM

Details ICAO ULMM (MMK)
Name Murmansk
Region Russia
Timezone Europe/Moscow (UTC+3.0)
Stats Elevation 266 ft / 81 m (AMSL)
Location 68.781671° 32.750821°
Runways 1
Magnetic Variation 15.949° E

METAR

ULMM 151230Z 21002MPS 9999 BKN014 M05/M07 Q1002 R13/690141 NOSIG RMK QFE745

Decode

TAF

TAF TAF ULMM 151055Z 1512/1612 21003G08MPS 9999 BKN015 TEMPO 1512/1521 16003MPS 5000 -SHSN BKN015CB TEMPO 1521/1612 18003MPS 3100 -SHSN BR BKN011 BKN015CB

Decode

Destination Runways

ID Width Length Bearing (true) Bearing (mag) Surface Threshold Offset Overrun Length
14 148 ft / 45 m 8,172 ft / 2,491 m 146.23° 130.28° Concrete 0 ft / 0 m 160 ft / 49 m
32 148 ft / 45 m 8,172 ft / 2,491 m 326.26° 310.31° Concrete 0 ft / 0 m 160 ft / 49 m

Approach Navaids

Runway Type Ident Frequency Range Bearing (true) Bearing (mag) Slope Elevation
14 Localiser IPF 110.30 MHz 18 nm / 33 km 146.45° 130.51° - 276 ft / 84 m (AMSL)
14 Glidescope IPF 110.30 MHz 10 nm / 19 km 146.00° 130.05° 3.00° 266 ft / 81 m (AMSL)
32 Localiser IRD 108.50 MHz 18 nm / 33 km 326.45° 310.51° - 110 ft / 34 m (AMSL)
32 Glidescope IRD 108.50 MHz 10 nm / 19 km 326.00° 310.05° 3.00° 266 ft / 81 m (AMSL)

Popular Alternatives